Time;durP1;ratioP1;P1;durP2;ratioP2;P2;SDS_P1;SDS_P2;PMS_P1;PMS_P2;Temp;Humidity;BMP_temperature;BMP_pressure;BME280_temperature;BME280_humidity;BME280_pressure;Samples;Min_cycle;Max_cycle;Signal;HPM_P1;HPM_P2
2021/12/11 00:01:46;;;;;;;2.38;2.17;;;;;;;3.22;77.11;97597.81;2620833;39;20421;-69
2021/12/11 00:04:18;;;;;;;8.07;2.80;;;;;;;3.26;77.45;97607.88;2623636;54;20030;-69
2021/12/11 00:06:52;;;;;;;3.00;2.60;;;;;;;3.19;77.36;97602.56;2623438;54;20742;-68
2021/12/11 00:09:26;;;;;;;4.10;2.83;;;;;;;3.20;76.97;97614.63;2624163;54;20555;-68
2021/12/11 00:12:01;;;;;;;3.05;2.50;;;;;;;3.27;77.01;97617.38;2622781;54;20031;-69
2021/12/11 00:14:32;;;;;;;2.78;2.55;;;;;;;3.21;77.09;97622.28;2622764;54;20045;-69
2021/12/11 00:17:03;;;;;;;3.60;2.88;;;;;;;3.17;76.97;97634.06;2623072;54;20023;-69
2021/12/11 00:19:35;;;;;;;2.58;2.38;;;;;;;3.17;77.21;97628.03;2622067;54;20121;-68
2021/12/11 00:22:09;;;;;;;3.28;2.97;;;;;;;3.22;77.10;97643.97;2620104;54;20042;-68
2021/12/11 00:24:39;;;;;;;3.20;2.90;;;;;;;3.24;77.29;97639.41;2621121;54;20030;-69
2021/12/11 00:27:13;;;;;;;3.05;2.83;;;;;;;3.22;77.43;97643.97;2618436;54;20034;-69
2021/12/11 00:29:44;;;;;;;3.15;2.85;;;;;;;3.28;77.33;97650.31;2617838;47;20593;-69
2021/12/11 00:32:21;;;;;;;3.00;2.75;;;;;;;3.28;77.09;97655.53;2620185;54;20042;-69
2021/12/11 00:34:51;;;;;;;3.53;2.90;;;;;;;3.32;77.21;97660.25;2622537;54;20032;-71
2021/12/11 00:37:23;;;;;;;4.07;3.53;;;;;;;3.34;76.85;97658.25;2623005;54;20027;-69
2021/12/11 00:39:59;;;;;;;3.25;2.90;;;;;;;3.35;76.80;97672.97;2623092;47;20034;-69
2021/12/11 00:42:34;;;;;;;3.95;3.10;;;;;;;3.30;76.96;97682.28;2619581;54;20018;-69
2021/12/11 00:45:11;;;;;;;3.30;3.00;;;;;;;3.19;77.14;97686.94;2619729;39;20466;-68
2021/12/11 00:47:47;;;;;;;3.28;2.97;;;;;;;3.26;76.99;97688.84;2618802;47;20030;-68
2021/12/11 00:50:19;;;;;;;4.07;3.60;;;;;;;3.26;76.79;97691.47;2619395;54;20026;-68
2021/12/11 00:52:51;;;;;;;3.03;2.80;;;;;;;3.27;77.15;97695.72;2619494;54;20030;-68
2021/12/11 00:55:23;;;;;;;3.60;3.30;;;;;;;3.30;76.97;97703.19;2619911;54;20053;-68
2021/12/11 00:58:07;;;;;;;3.70;3.40;;;;;;;3.34;76.79;97715.72;2620704;54;20030;-68
2021/12/11 01:00:42;;;;;;;3.90;3.50;;;;;;;3.32;77.11;97722.13;2620611;54;20038;-69
2021/12/11 01:03:14;;;;;;;4.80;4.40;;;;;;;3.30;76.46;97730.13;2620020;54;20042;-69
2021/12/11 01:05:46;;;;;;;3.88;3.55;;;;;;;3.29;76.62;97741.56;2619847;47;20033;-68
2021/12/11 01:08:23;;;;;;;4.78;4.18;;;;;;;3.28;77.18;97755.63;2620763;54;20027;-69
2021/12/11 01:11:01;;;;;;;3.90;3.60;;;;;;;3.26;76.50;97748.91;2620550;54;20048;-69
2021/12/11 01:13:37;;;;;;;3.67;3.33;;;;;;;3.24;76.79;97767.38;2620567;54;20042;-69
2021/12/11 01:16:12;;;;;;;4.32;3.92;;;;;;;3.26;76.90;97775.03;2620410;54;20027;-69
2021/12/11 01:18:45;;;;;;;3.92;3.53;;;;;;;3.25;76.88;97786.47;2619994;54;20073;-68
2021/12/11 01:21:33;;;;;;;3.85;3.53;;;;;;;3.21;77.13;97781.59;2618890;54;20031;-67
2021/12/11 01:24:16;;;;;;;4.05;3.65;;;;;;;3.13;76.96;97784.25;2618920;54;20034;-68
2021/12/11 01:26:50;;;;;;;4.30;3.90;;;;;;;3.07;77.21;97790.16;2618513;54;20053;-69
2021/12/11 01:29:24;;;;;;;4.33;3.80;;;;;;;3.10;77.08;97788.97;2618843;54;20037;-68
2021/12/11 01:31:56;;;;;;;;;;;;;;;3.08;76.95;97796.19;2618479;54;20042;-70
2021/12/11 01:34:25;;;;;;;4.38;3.97;;;;;;;3.07;77.20;97803.22;2619077;54;19950;-69
2021/12/11 01:36:55;;;;;;;5.43;3.95;;;;;;;3.13;77.28;97814.78;2618428;47;20030;-68
2021/12/11 01:39:30;;;;;;;5.45;4.07;;;;;;;3.17;77.02;97810.84;2618999;54;20030;-69
2021/12/11 01:42:00;;;;;;;4.35;3.97;;;;;;;3.19;77.23;97829.78;2618888;54;20034;-68
2021/12/11 01:44:37;;;;;;;3.95;3.65;;;;;;;3.13;76.97;97833.06;2618520;47;20038;-69
2021/12/11 01:47:10;;;;;;;4.00;3.55;;;;;;;3.07;77.15;97826.72;2618885;54;20034;-68
2021/12/11 01:49:43;;;;;;;4.53;4.13;;;;;;;3.05;76.99;97841.72;2618615;54;20036;-69
2021/12/11 01:52:18;;;;;;;4.75;4.20;;;;;;;3.10;77.03;97851.66;2618722;54;20045;-69
2021/12/11 01:54:50;;;;;;;4.72;4.30;;;;;;;3.08;77.19;97859.66;2619167;54;20557;-70
2021/12/11 01:57:23;;;;;;;5.50;4.60;;;;;;;3.14;77.19;97863.41;2618726;54;20030;-69
2021/12/11 01:59:59;;;;;;;5.07;4.60;;;;;;;3.08;77.20;97869.31;2618104;54;20022;-69
2021/12/11 02:02:34;;;;;;;4.93;4.32;;;;;;;3.07;77.47;97880.75;2617952;47;20030;-68
2021/12/11 02:05:07;;;;;;;5.55;4.45;;;;;;;3.04;77.39;97889.72;2618018;46;20031;-69
2021/12/11 02:07:42;;;;;;;6.65;4.30;;;;;;;3.08;77.68;97898.03;2617902;47;20042;-69
2021/12/11 02:10:19;;;;;;;5.85;4.65;;;;;;;3.10;77.29;97903.88;2618754;54;20030;-68
2021/12/11 02:12:49;;;;;;;5.07;4.57;;;;;;;3.15;77.63;97905.03;2618521;54;20038;-69
2021/12/11 02:15:30;;;;;;;5.75;4.30;;;;;;;3.19;77.63;97913.34;2618610;46;20093;-69
2021/12/11 02:18:06;;;;;;;7.47;4.80;;;;;;;3.22;77.38;97919.06;2618135;54;20025;-69
2021/12/11 02:20:41;;;;;;;5.30;4.43;;;;;;;3.26;77.30;97929.97;2618163;47;20022;-68
2021/12/11 02:23:15;;;;;;;6.47;4.72;;;;;;;3.34;77.21;97926.50;2618952;39;20202;-68
2021/12/11 02:25:47;;;;;;;6.40;4.90;;;;;;;3.31;77.28;97939.94;2617949;47;20057;-68
2021/12/11 02:28:21;;;;;;;5.28;4.35;;;;;;;3.28;77.26;97941.06;2618770;54;20039;-68
2021/12/11 02:31:00;;;;;;;4.85;4.35;;;;;;;3.22;77.02;97944.34;2618323;54;20038;-69
2021/12/11 02:33:35;;;;;;;4.82;4.43;;;;;;;3.28;77.01;97946.28;2618812;54;20022;-68
2021/12/11 02:36:11;;;;;;;4.95;4.20;;;;;;;3.25;77.04;97957.06;2618978;54;20050;-69
2021/12/11 02:38:48;;;;;;;6.07;5.38;;;;;;;3.25;77.52;97964.91;2618826;54;20675;-67
2021/12/11 02:41:21;;;;;;;5.10;4.30;;;;;;;3.18;77.34;97963.94;2618547;54;20038;-69
2021/12/11 02:43:54;;;;;;;5.18;4.68;;;;;;;3.19;77.40;97971.63;2618630;54;20030;-69
2021/12/11 02:46:28;;;;;;;5.30;4.47;;;;;;;3.24;77.67;97976.34;2618920;54;20046;-69
2021/12/11 02:49:03;;;;;;;4.83;4.43;;;;;;;3.24;77.35;97986.78;2618848;54;20026;-69
2021/12/11 02:51:38;;;;;;;5.45;4.95;;;;;;;3.17;77.07;97988.44;2618675;54;20283;-68
2021/12/11 02:54:16;;;;;;;5.25;4.72;;;;;;;3.18;77.14;98000.50;2619998;54;20027;-68
2021/12/11 02:56:49;;;;;;;5.75;5.20;;;;;;;3.18;77.32;98001.34;2624234;54;20040;-69
2021/12/11 02:59:24;;;;;;;4.85;4.35;;;;;;;3.20;77.43;98003.78;2624414;54;20034;-68
2021/12/11 03:01:57;;;;;;;5.80;4.47;;;;;;;3.24;77.42;98010.31;2624479;54;20026;-69
2021/12/11 03:04:35;;;;;;;5.25;4.75;;;;;;;3.29;77.60;98013.22;2623792;54;20082;-69
2021/12/11 03:07:07;;;;;;;6.65;4.90;;;;;;;3.32;76.98;98017.31;2618915;54;20042;-69
2021/12/11 03:09:43;;;;;;;6.03;5.43;;;;;;;3.35;77.12;98023.03;2619882;39;20421;-68
2021/12/11 03:12:16;;;;;;;5.45;4.65;;;;;;;3.43;76.98;98041.31;2618976;54;20033;-69
2021/12/11 03:14:47;;;;;;;5.75;5.18;;;;;;;3.46;76.53;98040.94;2621245;47;20161;-69
2021/12/11 03:17:18;;;;;;;5.30;4.80;;;;;;;3.43;76.61;98050.94;2622037;54;20549;-70
2021/12/11 03:19:48;;;;;;;5.43;4.93;;;;;;;3.45;76.93;98055.00;2621656;47;20030;-69
2021/12/11 03:22:30;;;;;;;5.63;5.03;;;;;;;3.48;76.75;98053.88;2623630;47;20031;-69
2021/12/11 03:25:05;;;;;;;5.40;4.82;;;;;;;3.53;76.52;98066.44;2624851;54;20035;-68
2021/12/11 03:27:35;;;;;;;5.88;5.38;;;;;;;3.53;76.90;98069.03;2623676;39;20475;-69
2021/12/11 03:30:10;;;;;;;5.45;4.95;;;;;;;3.50;76.35;98074.59;2622209;47;20061;-68
2021/12/11 03:32:40;;;;;;;6.25;5.65;;;;;;;3.48;76.84;98078.19;2620726;54;20034;-68
2021/12/11 03:35:11;;;;;;;6.05;5.45;;;;;;;3.52;76.75;98083.09;2618097;47;20041;-67
2021/12/11 03:37:41;;;;;;;6.32;5.72;;;;;;;3.51;76.40;98090.13;2618483;54;20039;-69
2021/12/11 03:40:15;;;;;;;7.30;5.28;;;;;;;3.49;76.78;98094.69;2618570;54;20042;-69
2021/12/11 03:42:47;;;;;;;6.53;5.88;;;;;;;3.48;76.50;98091.25;2618486;54;20037;-68
2021/12/11 03:45:22;;;;;;;6.53;5.03;;;;;;;3.46;76.35;98098.44;2618213;39;20325;-68
2021/12/11 03:47:56;;;;;;;6.22;5.40;;;;;;;3.43;76.47;98098.78;2617657;47;20585;-68
2021/12/11 03:50:28;;;;;;;6.65;5.82;;;;;;;3.42;76.62;98114.63;2617972;54;20030;-69
2021/12/11 03:52:59;;;;;;;6.32;5.72;;;;;;;3.48;76.82;98106.94;2618514;54;20035;-68
2021/12/11 03:55:35;;;;;;;6.63;5.97;;;;;;;3.49;76.62;98118.22;2617877;47;20019;-67
2021/12/11 03:58:07;;;;;;;7.22;6.25;;;;;;;3.48;76.85;98119.19;2618777;54;20037;-68
2021/12/11 04:00:40;;;;;;;7.28;6.57;;;;;;;3.50;77.04;98130.28;2618336;54;20026;-68
2021/12/11 04:03:12;;;;;;;7.50;6.80;;;;;;;3.55;77.16;98135.00;2618800;54;20033;-68
2021/12/11 04:05:44;;;;;;;6.60;6.00;;;;;;;3.58;76.87;98130.28;2618345;47;20026;-68
2021/12/11 04:08:18;;;;;;;7.75;6.88;;;;;;;3.60;76.90;98141.41;2618599;54;20055;-68
2021/12/11 04:10:51;;;;;;;8.03;7.03;;;;;;;3.60;76.73;98144.03;2618477;54;20026;-69
2021/12/11 04:13:21;;;;;;;8.13;7.30;;;;;;;3.58;76.87;98151.19;2618449;54;20545;-68
2021/12/11 04:15:54;;;;;;;7.88;7.07;;;;;;;3.56;76.73;98154.97;2618433;54;20133;-68
2021/12/11 04:18:24;;;;;;;8.13;7.33;;;;;;;3.48;76.82;98161.00;2617918;47;20030;-68
2021/12/11 04:20:54;;;;;;;10.50;7.70;;;;;;;3.43;76.89;98164.13;2618460;54;20031;-68
2021/12/11 04:23:24;;;;;;;11.23;8.82;;;;;;;3.44;76.79;98167.53;2618624;54;20018;-67
2021/12/11 04:25:59;;;;;;;9.35;7.53;;;;;;;3.46;77.12;98178.63;2618750;54;20034;-68
2021/12/11 04:28:35;;;;;;;10.15;8.13;;;;;;;3.43;76.87;98182.41;2618487;54;20030;-68
2021/12/11 04:31:13;;;;;;;9.82;7.60;;;;;;;3.40;76.69;98181.91;2617690;47;20027;-69
2021/12/11 04:33:45;;;;;;;9.75;8.75;;;;;;;3.31;76.91;98201.16;2618864;54;20086;-68
2021/12/11 04:36:24;;;;;;;9.07;8.00;;;;;;;3.30;77.21;98200.31;2618468;54;20064;-68
2021/12/11 04:38:55;;;;;;;12.82;9.30;;;;;;;3.31;76.89;98203.78;2619036;54;20035;-68
2021/12/11 04:41:35;;;;;;;10.85;9.15;;;;;;;3.28;77.26;98215.38;2619095;54;20038;-68
2021/12/11 04:44:09;;;;;;;10.32;9.10;;;;;;;3.26;77.22;98219.91;2619098;54;20030;-68
2021/12/11 04:46:39;;;;;;;11.63;9.60;;;;;;;3.28;77.31;98225.00;2619442;54;20034;-69
2021/12/11 04:49:14;;;;;;;10.27;9.18;;;;;;;3.25;77.29;98228.72;2619497;54;20023;-68
2021/12/11 04:51:48;;;;;;;13.02;9.15;;;;;;;3.30;77.52;98229.06;2618708;54;20149;-68
2021/12/11 04:54:37;;;;;;;11.30;9.43;;;;;;;3.36;77.65;98231.06;2617801;47;20041;-69
2021/12/11 05:00:09;;;;;;;11.43;9.70;;;;;;;3.31;77.48;98229.91;2619348;54;20050;-67
2021/12/11 05:05:41;;;;;;;10.10;9.02;;;;;;;3.29;77.41;98250.13;2619013;54;20022;-67
2021/12/11 05:08:38;;;;;;;11.45;9.63;;;;;;;3.32;77.66;98247.22;2619413;54;20023;-68
2021/12/11 05:11:11;;;;;;;9.57;8.60;;;;;;;3.32;77.75;98247.22;2619970;47;20072;-68
2021/12/11 05:13:45;;;;;;;14.15;9.63;;;;;;;3.33;77.71;98251.44;2620576;54;20039;-68
2021/12/11 05:16:16;;;;;;;12.57;10.27;;;;;;;3.37;77.34;98261.41;2620598;54;20034;-69
2021/12/11 05:18:48;;;;;;;13.25;9.95;;;;;;;3.41;77.21;98264.53;2615944;39;20402;-67
2021/12/11 05:21:21;;;;;;;11.13;9.30;;;;;;;3.32;77.52;98265.50;2617048;47;20030;-67
2021/12/11 05:23:53;;;;;;;12.85;10.07;;;;;;;3.35;77.38;98275.63;2618456;54;20073;-67
2021/12/11 05:26:24;;;;;;;11.25;9.77;;;;;;;3.31;77.43;98277.75;2618681;39;20469;-67
2021/12/11 05:28:56;;;;;;;13.52;9.93;;;;;;;3.31;77.64;98285.59;2617540;47;20550;-66
2021/12/11 05:31:26;;;;;;;11.15;9.25;;;;;;;3.31;77.51;98290.81;2618087;54;20038;-67
2021/12/11 05:33:56;;;;;;;13.02;9.98;;;;;;;3.32;77.38;98291.63;2618422;54;20037;-67
2021/12/11 05:36:29;;;;;;;14.60;10.88;;;;;;;3.31;77.55;98290.81;2618239;54;20566;-67
2021/12/11 05:38:58;;;;;;;13.35;10.60;;;;;;;3.28;77.38;98305.97;2618076;54;20018;-67
2021/12/11 05:41:28;;;;;;;10.98;9.88;;;;;;;3.32;77.53;98299.47;2618038;54;20026;-66
2021/12/11 05:44:01;;;;;;;14.10;10.27;;;;;;;3.38;77.65;98312.69;2617607;51;20065;-67
2021/12/11 05:46:30;;;;;;;11.00;9.85;;;;;;;3.41;77.74;98314.19;2617939;54;20027;-67
2021/12/11 05:49:00;;;;;;;13.35;10.75;;;;;;;3.35;77.66;98320.88;2617949;54;20572;-67
2021/12/11 05:51:37;;;;;;;13.93;10.45;;;;;;;3.35;77.40;98322.66;2617425;47;20085;-66
2021/12/11 05:54:09;;;;;;;12.40;10.45;;;;;;;3.27;77.49;98326.06;2617497;47;20034;-67
2021/12/11 05:56:40;;;;;;;10.95;9.32;;;;;;;3.27;77.73;98338.31;2618069;54;20038;-68
2021/12/11 05:59:15;;;;;;;13.43;10.05;;;;;;;3.26;77.78;98345.31;2617435;47;20117;-68
2021/12/11 06:01:48;;;;;;;12.25;10.40;;;;;;;3.26;77.60;98347.91;2618010;54;20026;-68
2021/12/11 06:04:21;;;;;;;15.20;10.57;;;;;;;3.24;77.28;98334.22;2617976;39;20441;-68
2021/12/11 06:06:51;;;;;;;12.95;10.68;;;;;;;3.28;77.61;98342.56;2617484;54;20026;-68
2021/12/11 06:09:23;;;;;;;12.65;10.40;;;;;;;3.31;77.63;98358.75;2617645;54;20042;-68
2021/12/11 06:11:57;;;;;;;13.70;10.18;;;;;;;3.33;77.49;98367.22;2617645;54;20565;-68
2021/12/11 06:14:29;;;;;;;;;;;;;;;3.34;77.62;98368.84;2618040;47;20046;-69
2021/12/11 06:17:05;;;;;;;12.55;10.00;;;;;;;3.38;77.15;98371.97;2617041;54;20078;-69
2021/12/11 06:19:36;;;;;;;13.77;11.25;;;;;;;3.34;77.46;98378.50;2617847;54;20043;-68
2021/12/11 06:22:06;;;;;;;12.93;10.57;;;;;;;3.29;77.13;98384.19;2617572;54;20534;-68
2021/12/11 06:24:36;;;;;;;12.25;10.07;;;;;;;3.23;77.38;98384.81;2617765;47;20038;-68
2021/12/11 06:27:06;;;;;;;13.52;11.52;;;;;;;3.20;77.14;98391.16;2618251;54;20037;-68
2021/12/11 06:29:39;;;;;;;12.45;10.95;;;;;;;3.26;77.72;98396.75;2617685;47;20054;-68
2021/12/11 06:32:09;;;;;;;14.48;10.60;;;;;;;3.27;77.06;98401.81;2617840;54;20034;-68
2021/12/11 06:34:39;;;;;;;13.40;10.88;;;;;;;3.23;77.46;98417.00;2618078;39;20493;-68
2021/12/11 06:37:14;;;;;;;15.32;11.60;;;;;;;3.29;77.34;98419.94;2617899;39;20532;-68
2021/12/11 06:39:44;;;;;;;14.43;11.00;;;;;;;3.29;77.65;98430.41;2617731;51;20038;-67
2021/12/11 06:42:20;;;;;;;15.07;10.50;;;;;;;3.27;77.20;98424.53;2621243;54;20046;-67
2021/12/11 06:44:53;;;;;;;13.60;10.57;;;;;;;3.30;77.38;98432.84;2621189;54;20039;-67
2021/12/11 06:47:22;;;;;;;15.93;11.70;;;;;;;3.34;77.14;98441.19;2621072;54;20031;-68
2021/12/11 06:49:52;;;;;;;17.55;11.98;;;;;;;3.41;77.40;98443.03;2621708;54;20030;-68
2021/12/11 06:52:26;;;;;;;13.38;10.68;;;;;;;3.48;76.96;98461.53;2623587;54;20584;-67
2021/12/11 06:54:56;;;;;;;16.77;12.88;;;;;;;3.56;76.76;98472.03;2623226;47;20045;-68
2021/12/11 06:57:26;;;;;;;15.50;11.85;;;;;;;3.55;76.59;98472.16;2624505;54;20526;-67
2021/12/11 07:00:11;;;;;;;14.02;11.10;;;;;;;3.54;77.12;98475.75;2625003;54;20034;-67
2021/12/11 07:02:41;;;;;;;13.82;11.15;;;;;;;3.59;76.67;98490.03;2622998;54;20054;-68
2021/12/11 07:05:12;;;;;;;13.35;10.88;;;;;;;3.57;76.68;98489.34;2623289;54;20031;-68
2021/12/11 07:07:43;;;;;;;12.88;10.43;;;;;;;3.59;76.77;98508.31;2622204;54;20038;-68
2021/12/11 07:10:17;;;;;;;17.30;13.18;;;;;;;3.54;76.79;98510.56;2622412;54;20030;-68
2021/12/11 07:12:48;;;;;;;16.02;11.90;;;;;;;3.49;76.35;98512.81;2622066;54;20151;-68
2021/12/11 07:15:20;;;;;;;15.07;11.75;;;;;;;3.47;76.33;98526.06;2623545;54;20090;-69
2021/12/11 07:17:50;;;;;;;13.73;11.32;;;;;;;3.43;76.37;98527.34;2622555;54;20038;-69
2021/12/11 07:20:20;;;;;;;12.60;10.57;;;;;;;3.43;76.69;98529.13;2621307;54;20026;-69
2021/12/11 07:22:50;;;;;;;13.45;11.20;;;;;;;3.45;76.37;98543.66;2621456;54;20034;-68
2021/12/11 07:25:27;;;;;;;16.52;12.23;;;;;;;3.35;76.64;98552.59;2620250;47;20553;-69
2021/12/11 07:28:01;;;;;;;16.08;12.73;;;;;;;3.36;77.19;98554.22;2620886;54;20043;-67
2021/12/11 07:30:35;;;;;;;;;;;;;;;3.35;77.04;98556.03;2621937;54;20045;-68
2021/12/11 07:33:06;;;;;;;14.25;11.32;;;;;;;3.42;77.16;98562.25;2622500;54;19938;-67
2021/12/11 07:35:38;;;;;;;15.13;11.27;;;;;;;3.50;76.86;98571.94;2619947;39;20422;-68
2021/12/11 07:38:08;;;;;;;15.27;11.18;;;;;;;3.57;76.66;98578.22;2620212;47;20034;-67
2021/12/11 07:40:41;;;;;;;16.92;12.30;;;;;;;3.62;76.30;98593.44;2619327;54;20038;-67
2021/12/11 07:43:12;;;;;;;13.80;11.02;;;;;;;3.59;76.56;98591.97;2620212;54;20042;-70
2021/12/11 07:45:45;;;;;;;14.02;11.13;;;;;;;3.59;76.43;98596.34;2619911;54;20030;-67
2021/12/11 07:48:15;;;;;;;15.90;11.97;;;;;;;3.57;76.38;98599.13;2619225;54;20034;-69
2021/12/11 07:50:45;;;;;;;14.00;10.77;;;;;;;3.62;76.69;98602.09;2620063;54;20030;-68
2021/12/11 07:53:17;;;;;;;15.23;10.60;;;;;;;3.63;76.14;98614.22;2620672;54;20038;-68
2021/12/11 07:55:47;;;;;;;16.30;11.95;;;;;;;3.50;75.80;98619.00;2621343;54;20026;-70
2021/12/11 07:58:17;;;;;;;15.57;11.77;;;;;;;3.51;76.40;98620.66;2620997;54;20041;-68
2021/12/11 08:00:50;;;;;;;16.38;12.00;;;;;;;3.48;76.40;98627.00;2619300;54;20564;-68
2021/12/11 08:03:21;;;;;;;14.02;11.32;;;;;;;3.53;76.33;98634.38;2619034;54;20038;-68
2021/12/11 08:05:57;;;;;;;14.00;11.05;;;;;;;3.59;75.91;98633.78;2618407;54;20038;-68
2021/12/11 08:08:28;;;;;;;20.13;14.10;;;;;;;3.57;76.15;98643.56;2618644;39;20422;-68
2021/12/11 08:11:02;;;;;;;28.98;17.65;;;;;;;3.58;76.22;98641.75;2618100;54;20039;-67
2021/12/11 08:13:32;;;;;;;20.23;14.65;;;;;;;3.62;76.23;98643.09;2617756;54;20059;-68
2021/12/11 08:16:04;;;;;;;14.80;12.23;;;;;;;3.59;75.81;98656.47;2618129;54;20552;-68
2021/12/11 08:18:34;;;;;;;15.88;12.30;;;;;;;3.64;75.99;98656.84;2618171;54;20054;-68
2021/12/11 08:21:05;;;;;;;18.40;12.70;;;;;;;3.66;75.71;98667.97;2617382;54;20110;-67
2021/12/11 08:23:42;;;;;;;15.45;12.60;;;;;;;3.67;75.85;98656.53;2617617;47;20042;-69
2021/12/11 08:26:15;;;;;;;20.55;12.98;;;;;;;3.70;75.98;98672.72;2617897;54;20034;-68
2021/12/11 08:28:46;;;;;;;20.85;12.43;;;;;;;3.67;75.59;98680.91;2618132;54;20045;-69
2021/12/11 08:31:18;;;;;;;14.05;11.05;;;;;;;3.66;75.07;98679.22;2617400;47;20057;-68
2021/12/11 08:33:48;;;;;;;17.65;11.98;;;;;;;3.61;75.22;98685.91;2618197;54;20034;-68
2021/12/11 08:36:18;;;;;;;19.30;12.25;;;;;;;3.61;74.99;98696.34;2618268;54;20038;-68
2021/12/11 08:38:48;;;;;;;14.98;11.95;;;;;;;3.60;75.40;98703.38;2617507;54;20030;-68
2021/12/11 08:41:22;;;;;;;15.23;12.00;;;;;;;3.62;75.25;98713.66;2617477;47;20035;-69
2021/12/11 08:43:59;;;;;;;17.83;12.63;;;;;;;3.64;75.52;98720.41;2618002;54;20030;-68
2021/12/11 08:46:36;;;;;;;16.08;11.93;;;;;;;3.68;75.23;98734.81;2617991;54;20118;-69
2021/12/11 08:49:10;;;;;;;16.02;12.15;;;;;;;3.76;75.27;98722.78;2618051;54;20154;-67
2021/12/11 08:51:43;;;;;;;18.23;14.18;;;;;;;3.75;74.72;98735.03;2617446;47;20035;-68
2021/12/11 08:54:14;;;;;;;18.58;13.40;;;;;;;3.60;74.50;98742.59;2617720;39;20434;-68
2021/12/11 08:56:45;;;;;;;17.60;13.50;;;;;;;3.58;74.34;98739.28;2618618;47;20038;-67
2021/12/11 08:59:18;;;;;;;16.35;12.65;;;;;;;3.59;74.94;98750.56;2618948;54;20030;-68
2021/12/11 09:01:56;;;;;;;21.13;13.23;;;;;;;3.53;74.22;98753.78;2618533;54;20034;-67
2021/12/11 09:04:29;;;;;;;20.10;14.48;;;;;;;3.46;74.42;98754.38;2618683;54;20045;-67
2021/12/11 09:07:04;;;;;;;18.63;14.38;;;;;;;3.53;74.69;98759.00;2619308;39;20426;-67
2021/12/11 09:09:43;;;;;;;20.27;14.38;;;;;;;3.51;74.46;98767.00;2618909;54;20054;-67
2021/12/11 09:12:21;;;;;;;19.45;14.40;;;;;;;3.47;74.28;98782.16;2618306;54;20035;-68
2021/12/11 09:14:55;;;;;;;20.15;14.27;;;;;;;3.47;74.45;98784.78;2618642;54;20085;-67
2021/12/11 09:17:34;;;;;;;18.67;13.65;;;;;;;3.48;74.05;98793.44;2618419;39;20421;-67
2021/12/11 09:20:12;;;;;;;20.75;14.25;;;;;;;3.41;74.00;98787.16;2618517;54;20034;-67
2021/12/11 09:22:48;;;;;;;21.15;14.60;;;;;;;3.50;74.12;98796.72;2618681;39;20445;-67
2021/12/11 09:25:25;;;;;;;21.45;14.38;;;;;;;3.60;74.08;98807.94;2618041;47;20030;-67
2021/12/11 09:27:59;;;;;;;21.15;14.45;;;;;;;3.68;73.64;98807.22;2618612;39;20425;-67
2021/12/11 09:30:31;;;;;;;;;;;;;;;3.50;73.27;98809.78;2619185;39;20441;-66
2021/12/11 09:33:08;;;;;;;18.98;13.15;;;;;;;3.53;73.66;98819.94;2618181;54;19973;-66
2021/12/11 09:35:44;;;;;;;18.90;12.95;;;;;;;3.56;73.67;98813.63;2617993;54;20027;-67
2021/12/11 09:38:20;;;;;;;18.65;13.55;;;;;;;3.60;73.14;98815.78;2617958;47;20550;-67
2021/12/11 09:40:56;;;;;;;17.05;13.05;;;;;;;3.69;73.04;98827.97;2617903;54;20039;-66
2021/12/11 09:43:40;;;;;;;20.92;13.88;;;;;;;3.76;72.86;98824.78;2618236;39;20402;-66
2021/12/11 09:46:14;;;;;;;21.38;13.93;;;;;;;3.72;73.08;98832.91;2618712;39;20597;-66
2021/12/11 09:48:47;;;;;;;17.80;13.27;;;;;;;3.75;73.17;98834.38;2617679;47;20033;-67
2021/12/11 09:51:21;;;;;;;19.40;13.83;;;;;;;3.81;72.41;98838.22;2618206;54;20045;-67
2021/12/11 09:53:53;;;;;;;19.00;13.77;;;;;;;3.82;72.48;98847.69;2618699;39;20425;-67
2021/12/11 09:56:29;;;;;;;17.98;12.88;;;;;;;3.88;72.19;98847.94;2618470;54;20322;-68
2021/12/11 09:59:07;;;;;;;17.30;12.65;;;;;;;3.87;71.33;98854.13;2618806;39;20433;-67
2021/12/11 10:01:40;;;;;;;23.58;17.15;;;;;;;3.87;71.82;98863.75;2618181;54;20026;-67
2021/12/11 10:04:16;;;;;;;24.60;17.42;;;;;;;3.84;71.34;98864.91;2617596;47;20066;-67
2021/12/11 10:07:24;;;;;;;19.52;13.50;;;;;;;3.94;71.46;98868.25;2618103;54;20611;-68
2021/12/11 10:10:00;;;;;;;20.13;14.38;;;;;;;4.06;71.31;98868.03;2618471;54;20033;-68
2021/12/11 10:12:33;;;;;;;20.02;14.05;;;;;;;4.06;70.69;98878.50;2618201;54;20585;-67
2021/12/11 10:15:11;;;;;;;20.13;15.48;;;;;;;4.14;70.88;98873.34;2618626;54;20030;-66
2021/12/11 10:17:44;;;;;;;17.10;12.60;;;;;;;4.09;70.27;98868.56;2618304;54;20569;-66
2021/12/11 10:20:19;;;;;;;20.83;15.05;;;;;;;4.22;70.59;98873.41;2618410;54;20039;-67
2021/12/11 10:22:51;;;;;;;22.75;17.05;;;;;;;4.34;70.41;98876.63;2618248;54;20043;-67
2021/12/11 10:25:25;;;;;;;19.88;15.27;;;;;;;4.47;70.40;98883.09;2618340;54;20042;-66
2021/12/11 10:27:54;;;;;;;19.52;13.93;;;;;;;4.64;70.19;98883.22;2618837;54;20031;-68
2021/12/11 10:30:28;;;;;;;17.65;13.50;;;;;;;4.78;70.01;98887.94;2620225;47;20546;-68
2021/12/11 10:32:58;;;;;;;16.50;12.50;;;;;;;4.84;69.38;98899.56;2619352;54;20034;-69
2021/12/11 10:35:31;;;;;;;17.00;13.05;;;;;;;4.82;69.12;98888.44;2619420;54;20549;-67
2021/12/11 10:38:03;;;;;;;18.00;11.90;;;;;;;4.90;68.74;98897.19;2620208;54;20064;-68
2021/12/11 10:40:39;;;;;;;14.98;10.65;;;;;;;4.77;68.09;98896.75;2619254;54;20042;-67
2021/12/11 10:43:12;;;;;;;19.52;13.52;;;;;;;4.76;68.68;98900.34;2619883;54;20038;-69
2021/12/11 10:45:45;;;;;;;17.15;12.75;;;;;;;4.85;68.39;98895.97;2622457;54;20038;-67
2021/12/11 10:48:18;;;;;;;18.55;12.88;;;;;;;4.93;68.20;98891.59;2622992;46;20038;-66
2021/12/11 10:50:52;;;;;;;22.83;13.60;;;;;;;4.96;67.80;98891.31;2622519;47;20026;-70
2021/12/11 10:53:24;;;;;;;16.50;12.88;;;;;;;4.94;67.27;98895.06;2622424;54;20030;-68
2021/12/11 10:55:57;;;;;;;25.35;13.52;;;;;;;4.96;67.15;98888.69;2619692;54;20030;-68
2021/12/11 10:58:32;;;;;;;25.67;14.13;;;;;;;5.11;66.60;98896.00;2619230;54;20034;-68
2021/12/11 11:01:12;;;;;;;28.38;16.02;;;;;;;5.17;66.43;98888.31;2619795;47;20045;-68
2021/12/11 11:03:45;;;;;;;19.02;11.55;;;;;;;5.31;66.50;98873.00;2618730;54;20046;-67
2021/12/11 11:06:15;;;;;;;32.55;14.48;;;;;;;5.37;65.97;98875.78;2618929;54;20038;-67
2021/12/11 11:08:46;;;;;;;16.25;11.90;;;;;;;5.56;65.78;98879.16;2618147;47;20026;-68
2021/12/11 11:11:19;;;;;;;22.25;11.00;;;;;;;5.67;65.15;98876.22;2618564;54;20042;-67
2021/12/11 11:13:52;;;;;;;18.03;11.30;;;;;;;5.86;64.62;98881.19;2619015;54;20038;-67
2021/12/11 11:16:27;;;;;;;17.88;12.10;;;;;;;5.90;64.60;98884.34;2618393;46;20285;-69
2021/12/11 11:18:57;;;;;;;24.95;16.50;;;;;;;5.90;64.25;98887.78;2617230;54;20030;-71
2021/12/11 11:21:31;;;;;;;18.20;12.13;;;;;;;5.95;64.35;98889.94;2618413;39;20440;-69
2021/12/11 11:24:02;;;;;;;14.77;10.75;;;;;;;5.88;63.47;98892.38;2619097;54;20037;-70
2021/12/11 11:26:35;;;;;;;17.88;10.57;;;;;;;5.68;63.67;98898.88;2618694;47;20524;-71
2021/12/11 11:29:09;;;;;;;17.15;10.45;;;;;;;5.70;63.32;98907.38;2619631;54;20077;-71
2021/12/11 11:31:43;;;;;;;16.58;11.20;;;;;;;5.72;63.54;98901.00;2624997;54;20030;-70
2021/12/11 11:34:17;;;;;;;18.83;12.25;;;;;;;5.64;63.41;98921.97;2623204;47;20073;-71
2021/12/11 11:36:48;;;;;;;19.58;13.32;;;;;;;5.60;63.50;98923.25;2626295;54;20039;-70
2021/12/11 11:39:23;;;;;;;18.33;10.95;;;;;;;5.53;63.43;98918.81;2628814;54;20065;-71
2021/12/11 11:41:56;;;;;;;17.33;12.05;;;;;;;5.42;63.64;98931.19;2620813;54;20057;-73
2021/12/11 11:44:27;;;;;;;22.33;12.55;;;;;;;5.36;64.09;98931.00;2627876;54;20038;-71
2021/12/11 11:47:02;;;;;;;20.90;12.88;;;;;;;5.23;64.85;98944.53;2627253;54;20030;-72
2021/12/11 11:49:34;;;;;;;15.27;11.50;;;;;;;5.10;65.00;98937.09;2626383;54;20031;-72
2021/12/11 11:52:08;;;;;;;16.63;12.32;;;;;;;5.03;65.78;98943.94;2626678;47;20030;-71
2021/12/11 11:54:40;;;;;;;19.02;12.05;;;;;;;5.00;66.27;98949.47;2627343;47;20027;-73
2021/12/11 11:57:17;;;;;;;19.83;12.07;;;;;;;5.02;65.88;98946.69;2627115;47;20027;-71
2021/12/11 11:59:46;;;;;;;17.95;12.98;;;;;;;4.88;66.43;98948.88;2622992;54;20033;-70
2021/12/11 12:02:25;;;;;;;19.77;11.98;;;;;;;4.76;66.70;98963.19;2628350;47;20046;-73
2021/12/11 12:04:58;;;;;;;17.88;11.90;;;;;;;4.62;67.19;98964.56;2629908;54;20037;-70
2021/12/11 12:07:30;;;;;;;18.48;12.45;;;;;;;4.50;67.82;98965.78;2627384;54;20037;-72
2021/12/11 12:10:04;;;;;;;20.45;13.70;;;;;;;4.34;68.46;98968.22;2628076;54;20095;-72